createdAt,value
2022-11-29T00:02:45.651Z,0.02
2022-11-29T00:05:47.366Z,-0.20
2022-11-29T00:08:49.558Z,-0.11
2022-11-29T00:12:09.867Z,-0.18
2022-11-29T00:15:11.923Z,-0.13
2022-11-29T00:18:13.559Z,-0.21
2022-11-29T00:21:15.111Z,-0.31
2022-11-29T00:24:17.144Z,-0.41
2022-11-29T00:27:18.716Z,-0.31
2022-11-29T00:30:21.128Z,-0.22
2022-11-29T00:33:22.713Z,-0.31
2022-11-29T00:36:24.630Z,-0.29
2022-11-29T00:39:26.262Z,-0.48
2022-11-29T00:42:27.869Z,-0.39
2022-11-29T00:45:29.446Z,-0.37
2022-11-29T00:48:31.052Z,-0.46
2022-11-29T00:51:32.775Z,-0.46
2022-11-29T00:54:34.355Z,-0.39
2022-11-29T00:57:35.930Z,-0.48
2022-11-29T01:00:37.505Z,-0.46
2022-11-29T01:03:39.422Z,-0.66
2022-11-29T01:06:41.054Z,-0.58
2022-11-29T01:09:42.615Z,-0.70
2022-11-29T01:12:44.220Z,-0.68
2022-11-29T01:15:45.771Z,-0.74
2022-11-29T01:18:47.370Z,-0.81
2022-11-29T01:21:48.923Z,-0.95
2022-11-29T01:24:50.578Z,-0.82
2022-11-29T01:27:52.154Z,-0.74
2022-11-29T01:30:53.953Z,-0.59
2022-11-29T01:33:57.408Z,-0.61
2022-11-29T01:36:58.988Z,-0.64
2022-11-29T01:40:00.521Z,-0.60
2022-11-29T01:43:02.072Z,-0.65
2022-11-29T01:46:03.674Z,-0.70
2022-11-29T01:49:13.310Z,-0.57
2022-11-29T01:52:20.081Z,-0.74
2022-11-29T01:55:21.777Z,-0.45
2022-11-29T01:58:23.653Z,-0.52
2022-11-29T02:01:26.135Z,-0.55
2022-11-29T02:04:32.418Z,-0.56
2022-11-29T02:07:34.187Z,-0.59
2022-11-29T02:10:43.643Z,-0.52
2022-11-29T02:14:16.371Z,-0.58
2022-11-29T02:17:33.062Z,-0.69
2022-11-29T02:20:40.673Z,-0.70
2022-11-29T02:23:45.288Z,-0.68
2022-11-29T02:27:20.734Z,-0.70
2022-11-29T02:30:40.867Z,-0.67
2022-11-29T02:33:59.629Z,-0.71
2022-11-29T02:37:16.155Z,-0.55
2022-11-29T02:40:45.951Z,-0.66
2022-11-29T02:44:20.087Z,-0.72
2022-11-29T02:47:33.521Z,-0.73
2022-11-29T02:50:41.393Z,-0.71
2022-11-29T02:54:23.919Z,-0.77
2022-11-29T02:57:37.359Z,-0.77
2022-11-29T03:00:46.741Z,-0.65
2022-11-29T03:03:58.190Z,-0.59
2022-11-29T03:07:07.358Z,-0.49
2022-11-29T03:10:29.795Z,-0.58
2022-11-29T03:13:52.967Z,-0.62
2022-11-29T03:17:44.096Z,-0.59
2022-11-29T03:21:09.897Z,-0.61
2022-11-29T03:24:21.132Z,-0.81
2022-11-29T03:28:01.029Z,-0.80
2022-11-29T03:31:17.985Z,-0.80
2022-11-29T03:34:59.747Z,-0.61
2022-11-29T03:38:11.227Z,-0.74
2022-11-29T03:41:15.505Z,-0.69
2022-11-29T03:44:27.788Z,-0.66
2022-11-29T03:47:38.494Z,-0.51
2022-11-29T03:50:49.607Z,-0.64
2022-11-29T03:54:22.646Z,-0.58
2022-11-29T03:57:34.508Z,-0.44
2022-11-29T04:00:57.294Z,-0.55
2022-11-29T04:04:23.788Z,-0.47
2022-11-29T04:07:47.089Z,-0.67
2022-11-29T04:11:00.860Z,-0.67
2022-11-29T04:14:20.840Z,-0.53
2022-11-29T04:17:53.655Z,-0.56
2022-11-29T04:21:36.475Z,-0.57
2022-11-29T04:24:44.162Z,-0.46
2022-11-29T04:28:13.626Z,-0.50
2022-11-29T04:31:38.022Z,-0.58
2022-11-29T04:34:42.493Z,-0.57
2022-11-29T04:37:53.013Z,-0.46
2022-11-29T04:41:12.706Z,-0.41
2022-11-29T04:44:36.020Z,-0.49
2022-11-29T04:48:02.552Z,-0.55
2022-11-29T04:51:53.172Z,-0.53
2022-11-29T04:55:31.278Z,-0.52
2022-11-29T04:58:53.496Z,-0.39
2022-11-29T05:02:06.970Z,-0.36
2022-11-29T05:05:24.539Z,-0.26
2022-11-29T05:08:32.124Z,-0.26
2022-11-29T05:11:42.468Z,-0.56
2022-11-29T05:15:16.649Z,-0.37
2022-11-29T05:18:57.592Z,-0.56
2022-11-29T05:22:03.983Z,-0.39
2022-11-29T05:25:11.369Z,-0.45
2022-11-29T05:28:31.852Z,-0.59
2022-11-29T05:31:51.751Z,-0.58
2022-11-29T05:35:27.362Z,-0.74
2022-11-29T05:38:37.870Z,-0.56
2022-11-29T05:42:07.360Z,-0.41
2022-11-29T05:45:18.034Z,-0.21
2022-11-29T05:48:45.451Z,-0.36
2022-11-29T05:52:04.194Z,-0.25
2022-11-29T05:55:19.599Z,-0.40
2022-11-29T05:58:56.634Z,-0.31
2022-11-29T06:01:58.201Z,-0.27
2022-11-29T06:05:38.624Z,-0.18
2022-11-29T06:08:50.618Z,-0.23
2022-11-29T06:12:12.872Z,-0.36
2022-11-29T06:15:28.554Z,-0.13
2022-11-29T06:18:30.161Z,-0.13
2022-11-29T06:21:46.335Z,-0.25
2022-11-29T06:25:17.202Z,-0.17
2022-11-29T06:28:27.154Z,-0.19
2022-11-29T06:31:42.389Z,-0.02
2022-11-29T06:34:59.266Z,0.08
2022-11-29T06:38:23.168Z,0.17
2022-11-29T06:41:25.213Z,0.01
2022-11-29T06:44:27.075Z,0.13
2022-11-29T06:47:35.017Z,0.03
2022-11-29T06:50:48.272Z,0.04
2022-11-29T06:53:59.127Z,0.15
2022-11-29T06:57:30.622Z,0.26
2022-11-29T07:00:48.452Z,0.46
2022-11-29T07:04:07.377Z,0.26
2022-11-29T07:07:15.758Z,0.39
2022-11-29T07:10:19.435Z,0.37
2022-11-29T07:13:21.618Z,0.46
2022-11-29T07:16:33.887Z,0.52
2022-11-29T07:19:50.886Z,0.69
2022-11-29T07:23:32.768Z,0.66
2022-11-29T07:26:59.411Z,0.69
2022-11-29T07:30:13.040Z,0.69
2022-11-29T07:33:28.531Z,0.80
2022-11-29T07:36:53.302Z,0.77
2022-11-29T07:40:15.960Z,0.80
2022-11-29T07:43:38.881Z,0.72
2022-11-29T07:46:40.457Z,0.80
2022-11-29T07:49:42.039Z,0.72
2022-11-29T07:52:44.056Z,0.61
2022-11-29T07:55:46.814Z,0.81
2022-11-29T07:58:48.449Z,0.64
2022-11-29T08:01:50.120Z,0.58
2022-11-29T08:04:52.121Z,0.77
2022-11-29T08:07:54.560Z,0.78
2022-11-29T08:10:56.190Z,1.01
2022-11-29T08:14:00.152Z,0.90
2022-11-29T08:17:01.680Z,0.45
2022-11-29T08:20:04.483Z,0.71
2022-11-29T08:23:06.124Z,0.65
2022-11-29T08:26:07.687Z,0.93
2022-11-29T08:29:09.259Z,1.20
2022-11-29T08:32:10.851Z,1.01
2022-11-29T08:35:12.527Z,1.29
2022-11-29T08:38:14.107Z,1.46
2022-11-29T08:41:17.465Z,1.37
2022-11-29T08:44:19.068Z,1.34
2022-11-29T08:47:36.094Z,1.22
2022-11-29T08:50:37.659Z,1.26
2022-11-29T08:53:42.136Z,1.01
2022-11-29T09:00:06.957Z,0.93
2022-11-29T09:03:27.402Z,1.08
2022-11-29T09:06:34.499Z,0.73
2022-11-29T09:09:36.051Z,0.60
2022-11-29T09:12:39.869Z,0.98
2022-11-29T09:15:43.389Z,0.97
2022-11-29T09:18:51.255Z,1.05
2022-11-29T09:21:53.674Z,1.67
2022-11-29T09:24:55.282Z,1.75
2022-11-29T09:27:59.079Z,1.56
2022-11-29T09:31:05.489Z,1.28
2022-11-29T09:34:07.065Z,1.03
2022-11-29T09:37:08.595Z,0.99
2022-11-29T09:40:23.464Z,1.00
2022-11-29T09:43:44.204Z,1.14
2022-11-29T09:47:00.875Z,0.74
2022-11-29T09:50:30.708Z,0.87
2022-11-29T09:53:51.660Z,0.94
2022-11-29T09:56:55.679Z,1.09
2022-11-29T10:00:07.338Z,1.03
2022-11-29T10:03:23.356Z,0.70
2022-11-29T10:06:24.944Z,0.94
2022-11-29T10:09:42.144Z,0.84
2022-11-29T10:12:56.595Z,1.04
2022-11-29T10:16:09.249Z,1.38
2022-11-29T10:19:42.510Z,1.28
2022-11-29T10:22:54.536Z,1.38
2022-11-29T10:25:58.488Z,1.34
2022-11-29T10:29:00.111Z,1.52
2022-11-29T10:32:10.081Z,1.16
2022-11-29T10:35:17.756Z,1.17
2022-11-29T10:38:34.514Z,1.41
2022-11-29T10:41:36.138Z,1.23
2022-11-29T10:44:37.708Z,1.48
2022-11-29T10:47:39.506Z,1.37
2022-11-29T10:50:44.088Z,1.53
2022-11-29T10:53:46.674Z,1.36
2022-11-29T10:56:48.654Z,1.25
2022-11-29T11:00:00.717Z,1.21
2022-11-29T11:03:42.483Z,1.06
2022-11-29T11:06:45.751Z,1.21
2022-11-29T11:09:50.518Z,1.28
2022-11-29T11:13:08.138Z,1.43
2022-11-29T11:16:24.156Z,1.67
2022-11-29T11:19:25.651Z,1.73
2022-11-29T11:22:28.685Z,1.73
2022-11-29T11:25:37.010Z,1.66
2022-11-29T11:29:00.237Z,2.17
2022-11-29T11:32:02.107Z,1.96
2022-11-29T11:35:22.364Z,1.76
2022-11-29T11:38:23.996Z,2.01
2022-11-29T11:42:03.006Z,1.75
2022-11-29T11:45:22.097Z,1.79
2022-11-29T11:48:24.351Z,2.19
2022-11-29T11:51:25.949Z,2.17
2022-11-29T11:54:29.165Z,1.85
2022-11-29T11:57:31.848Z,2.11
2022-11-29T12:01:04.283Z,1.98
2022-11-29T12:04:21.916Z,1.97
2022-11-29T12:08:05.628Z,1.96
2022-11-29T12:11:02.805Z,1.99
2022-11-29T12:14:18.130Z,1.82
2022-11-29T12:17:30.388Z,1.89
2022-11-29T12:20:45.145Z,1.64
2022-11-29T12:23:57.567Z,1.82
2022-11-29T12:27:03.900Z,1.74
2022-11-29T12:30:14.144Z,1.81
2022-11-29T12:33:24.974Z,2.03
2022-11-29T12:36:51.842Z,1.82
2022-11-29T12:40:05.942Z,1.87
2022-11-29T12:43:28.919Z,2.17
2022-11-29T12:46:31.310Z,2.04
2022-11-29T12:50:01.215Z,2.00
2022-11-29T12:53:14.480Z,1.94
2022-11-29T12:56:36.533Z,2.12
2022-11-29T12:59:38.010Z,2.15
2022-11-29T13:03:17.439Z,2.05
2022-11-29T13:06:29.654Z,2.20
2022-11-29T13:09:43.428Z,2.06
2022-11-29T13:12:53.920Z,1.92
2022-11-29T13:16:07.171Z,2.04
2022-11-29T13:19:18.419Z,2.21
2022-11-29T13:22:44.795Z,2.06
2022-11-29T13:25:54.484Z,2.17
2022-11-29T13:28:57.696Z,2.09
2022-11-29T13:32:10.089Z,1.96
2022-11-29T13:35:26.837Z,2.33
2022-11-29T13:38:45.746Z,2.24
2022-11-29T13:42:10.531Z,2.29
2022-11-29T13:45:31.852Z,2.19
2022-11-29T13:48:45.826Z,2.18
2022-11-29T13:51:47.601Z,2.17
2022-11-29T13:55:03.540Z,1.97
2022-11-29T13:58:21.975Z,1.91
2022-11-29T14:01:26.744Z,1.90
2022-11-29T14:04:45.875Z,1.90
2022-11-29T14:08:47.680Z,2.12
2022-11-29T14:12:03.402Z,1.96
2022-11-29T14:15:25.547Z,1.80
2022-11-29T14:18:42.141Z,1.80
2022-11-29T14:21:59.175Z,2.08
2022-11-29T14:25:16.347Z,1.87
2022-11-29T14:28:24.419Z,1.97
2022-11-29T14:31:51.756Z,1.98
2022-11-29T14:35:17.568Z,1.99
2022-11-29T14:38:31.175Z,2.12
2022-11-29T14:41:53.045Z,2.05
2022-11-29T14:44:59.929Z,2.11
2022-11-29T14:48:02.817Z,2.06
2022-11-29T14:51:16.193Z,2.16
2022-11-29T14:54:19.915Z,2.02
2022-11-29T14:57:49.711Z,2.10
2022-11-29T15:01:01.773Z,2.23
2022-11-29T15:04:09.811Z,2.24
2022-11-29T15:07:17.488Z,2.14
2022-11-29T15:10:24.187Z,2.06
2022-11-29T15:13:31.963Z,1.92
2022-11-29T15:16:42.920Z,1.89
2022-11-29T15:19:50.571Z,1.96
2022-11-29T15:23:00.906Z,1.89
2022-11-29T15:26:02.519Z,1.90
2022-11-29T15:29:18.952Z,1.71
2022-11-29T15:32:28.610Z,1.81
2022-11-29T15:35:32.515Z,1.89
2022-11-29T15:38:45.154Z,1.71
2022-11-29T15:41:46.700Z,1.82
2022-11-29T15:44:49.048Z,1.85
2022-11-29T15:47:50.833Z,1.93
2022-11-29T15:50:55.371Z,1.95
2022-11-29T15:54:12.846Z,1.92
2022-11-29T15:57:33.783Z,1.88
2022-11-29T16:00:35.976Z,1.81
2022-11-29T16:03:41.003Z,1.88
2022-11-29T16:06:44.327Z,1.84
2022-11-29T16:09:51.716Z,1.83
2022-11-29T16:12:59.406Z,1.75
2022-11-29T16:16:17.003Z,1.79
2022-11-29T16:19:22.115Z,1.64
2022-11-29T16:22:24.342Z,1.70
2022-11-29T16:25:27.135Z,1.66
2022-11-29T16:28:40.890Z,1.61
2022-11-29T16:31:42.563Z,1.66
2022-11-29T16:34:45.872Z,1.57
2022-11-29T16:37:48.362Z,1.38
2022-11-29T16:41:07.920Z,1.37
2022-11-29T16:44:42.335Z,1.43
2022-11-29T16:47:52.946Z,1.37
2022-11-29T16:51:18.209Z,1.36
2022-11-29T16:54:25.977Z,1.20
2022-11-29T16:57:28.830Z,1.22
2022-11-29T17:00:33.635Z,1.06
2022-11-29T17:03:35.802Z,1.13
2022-11-29T17:06:38.191Z,1.02
2022-11-29T17:09:40.419Z,0.74
2022-11-29T17:12:47.649Z,0.55
2022-11-29T17:15:49.745Z,0.74
2022-11-29T17:18:54.978Z,0.60
2022-11-29T17:21:57.252Z,0.36
2022-11-29T17:24:58.861Z,0.51
2022-11-29T17:28:00.454Z,0.58
2022-11-29T17:31:26.763Z,0.43
2022-11-29T17:34:28.709Z,0.35
2022-11-29T17:37:31.169Z,0.44
2022-11-29T17:40:33.086Z,0.39
2022-11-29T17:43:35.717Z,0.35
2022-11-29T17:46:37.877Z,0.26
2022-11-29T17:49:39.902Z,0.08
2022-11-29T17:52:42.034Z,0.14
2022-11-29T17:55:43.665Z,0.01
2022-11-29T17:58:45.863Z,0.01
2022-11-29T18:01:47.881Z,0.14
2022-11-29T18:04:49.992Z,0.09
2022-11-29T18:07:59.144Z,0.05
2022-11-29T18:11:08.610Z,0.10
2022-11-29T18:14:11.826Z,0.07
2022-11-29T18:17:13.891Z,-0.05
2022-11-29T18:20:16.013Z,-0.02
2022-11-29T18:23:18.072Z,-0.04
2022-11-29T18:26:30.078Z,0.09
2022-11-29T18:29:46.284Z,0.10
2022-11-29T18:32:57.255Z,0.15
2022-11-29T18:36:06.466Z,0.23
2022-11-29T18:39:10.695Z,0.32
2022-11-29T18:42:13.204Z,0.31
2022-11-29T18:45:15.261Z,0.28
2022-11-29T18:48:17.712Z,0.37
2022-11-29T18:51:20.986Z,0.37
2022-11-29T18:54:23.014Z,0.29
2022-11-29T18:57:25.038Z,0.39
2022-11-29T19:00:26.761Z,0.39
2022-11-29T19:03:28.706Z,0.49
2022-11-29T19:06:39.307Z,0.54
2022-11-29T19:09:46.848Z,0.67
2022-11-29T19:12:51.320Z,0.61
2022-11-29T19:15:54.776Z,0.70
2022-11-29T19:18:58.666Z,0.73
2022-11-29T19:22:01.070Z,0.62
2022-11-29T19:25:03.122Z,0.72
2022-11-29T19:28:11.111Z,0.81
2022-11-29T19:31:18.703Z,0.95
2022-11-29T19:34:20.849Z,0.98
2022-11-29T19:37:23.002Z,1.22
2022-11-29T19:40:24.791Z,1.18
2022-11-29T19:43:26.797Z,1.18
2022-11-29T19:46:33.380Z,1.22
2022-11-29T19:49:37.279Z,1.33
2022-11-29T19:52:39.321Z,1.28
2022-11-29T19:55:44.113Z,1.25
2022-11-29T19:58:48.185Z,1.16
2022-11-29T20:01:51.140Z,1.21
2022-11-29T20:04:54.300Z,1.22
2022-11-29T20:07:56.484Z,1.32
2022-11-29T20:11:10.604Z,1.26
2022-11-29T20:14:13.436Z,1.61
2022-11-29T20:17:15.587Z,1.27
2022-11-29T20:20:20.994Z,1.43
2022-11-29T20:23:23.081Z,1.62
2022-11-29T20:26:26.318Z,1.65
2022-11-29T20:29:31.158Z,1.86
2022-11-29T20:32:35.940Z,1.80
2022-11-29T20:35:38.859Z,1.62
2022-11-29T20:38:53.213Z,1.66
2022-11-29T20:42:06.658Z,1.79
2022-11-29T20:45:10.305Z,1.64
2022-11-29T20:48:23.262Z,1.47
2022-11-29T20:51:37.760Z,1.66
2022-11-29T20:54:39.846Z,1.56
2022-11-29T20:57:42.008Z,1.38
2022-11-29T21:00:44.300Z,1.45
2022-11-29T21:03:46.857Z,1.39
2022-11-29T21:06:49.311Z,1.36
2022-11-29T21:09:50.996Z,1.46
2022-11-29T21:12:52.893Z,1.58
2022-11-29T21:15:55.397Z,1.61
2022-11-29T21:18:59.995Z,1.73
2022-11-29T21:22:10.736Z,1.71
2022-11-29T21:25:33.707Z,1.78
2022-11-29T21:28:42.083Z,1.66
2022-11-29T21:31:45.812Z,1.67
2022-11-29T21:34:47.876Z,1.73
2022-11-29T21:38:00.370Z,1.85
2022-11-29T21:41:02.213Z,2.03
2022-11-29T21:44:07.119Z,1.80
2022-11-29T21:47:09.510Z,1.92
2022-11-29T21:50:13.097Z,2.01
2022-11-29T21:53:14.639Z,1.85
2022-11-29T21:56:16.270Z,2.02
2022-11-29T21:59:17.835Z,1.95
2022-11-29T22:02:19.515Z,2.06
2022-11-29T22:05:21.150Z,1.97
2022-11-29T22:08:22.794Z,2.02
2022-11-29T22:11:36.558Z,2.03
2022-11-29T22:14:38.153Z,1.96
2022-11-29T22:17:40.359Z,1.94
2022-11-29T22:20:41.911Z,1.95
2022-11-29T22:23:43.450Z,2.03
2022-11-29T22:26:45.710Z,2.02
2022-11-29T22:29:47.249Z,1.98
2022-11-29T22:32:48.793Z,1.95
2022-11-29T22:35:50.325Z,2.12
2022-11-29T22:38:51.884Z,1.95
2022-11-29T22:41:54.953Z,2.19
2022-11-29T22:44:56.763Z,2.08
2022-11-29T22:47:58.372Z,2.10
2022-11-29T22:51:11.380Z,2.10
2022-11-29T22:54:15.502Z,2.18
2022-11-29T22:57:17.124Z,2.30
2022-11-29T23:00:18.895Z,2.24
2022-11-29T23:03:20.429Z,2.42
2022-11-29T23:06:23.493Z,2.21
2022-11-29T23:09:25.018Z,2.14
2022-11-29T23:12:26.535Z,2.17
2022-11-29T23:15:28.097Z,2.31
2022-11-29T23:18:29.854Z,2.18
2022-11-29T23:21:34.984Z,2.26
2022-11-29T23:24:36.951Z,2.19
2022-11-29T23:27:38.539Z,2.36
2022-11-29T23:30:40.163Z,2.55
2022-11-29T23:33:41.736Z,2.45
2022-11-29T23:36:48.379Z,2.51
2022-11-29T23:39:54.046Z,2.33
2022-11-29T23:42:55.639Z,2.36
2022-11-29T23:45:57.403Z,2.46
2022-11-29T23:48:58.989Z,2.30
2022-11-29T23:52:00.534Z,2.13
2022-11-29T23:55:02.366Z,2.22
2022-11-29T23:58:03.970Z,2.24
